Redbird, Oklahoma
Current Conditions -  °F | °C
As of 9:53 PM on Sunday 25 Jan 2015 (Local Time) from KMKO Reporting Station
Clear Clear  
Wind Chill: 33°   Ceiling: Unl
Heat Index: 40°   Visibility: 10mi
Dew Point: 30°   Wind: 10mph
Humidity: 68%   Direction: 340°NNW
Pressure: 30.14"   Gusts: NA
Location:  35.89°N, 95.59°W
Report Text: KMKO 260353Z AUTO 34009KT 10SM CLR 04/M01 A3014 RMK AO2 SLP207 T00441011
Loading
Personal Weather Stations






























Interactive Weather Map New forecast layout! Learn more

10-Day Weather Forecast

Advertisements
Track Severe Weather on mobile